Hovedside
METAR-TAF:

METAR-TAF

Lufthavner :

Abidjan, Elfenbenskysten

Port Bouet lufthavn

breddegrad: 05-15N, lengdegrad: 003-56W, høyde over havet: 7 m

Gjeldene værobservasjon

Denne rapporten ble laget for 26 minutter siden, klokken 21:00 UTC
Vind 5 kt fra Sørvest
Temperatur 27°C
Luftfuktighet 94%
Trykk 1011 hPa
Sikt: 8000 m
Få skyer i en høyde av 1200 ft

METAR: DIAP 182100Z 23005KT 8000 FEW012 27/26 Q1011 NOSIG

Tid: 21:26 (21:26 UTC)

Varsel

Denne rapporten ble laget for 4 timer og 26 minutter siden, klokken 17:00 UTC
Varsel gyldig fra 18. klokken 18 UTC til 19. klokken 24 UTC
Vind 6 kt fra Sør-sørvest
Sikt: 8000 m
Spredte skyer i en høyde av 1200 ft
Sannsynlighet 30% :
Midlertidig
fra 19. klokken 05 UTC til 19. klokken 09 UTC
Sikt: 3000 m
dis
Sannsynlighet 30% :
Midlertidig
fra 19. klokken 14 UTC til 19. klokken 18 UTC
Brutte skyer i en høyde av 1200 ft

TAF: DIAP 181700Z 1818/1924 20006KT 8000 SCT012 PROB30 TEMPO 1905/1909 3000 BR PROB30 TEMPO 1914/1918 BKN012

Værobservasjoner og værvarsel for over 4000 flyplasser (METAR- og TAF-rapporter).

Tilgjengelige stasjoner er representert av de røde og gule prikkene på kartet.

Hold musepekeren over prikken for å se navnet på stasjonen.

Klikk så for å se værobservasjoner og -varsler.

For å forandre kartet kan du klikke på den grønne knappen med svart kryss for å zoome inn, på den grønne knappen med strek for å zoome ut, eller på de grønne pilene for å se tilstøtende kart.


METAR-TAF: